createdAt,value
2022-10-02T00:00:18.658Z,975.10
2022-10-02T00:02:52.406Z,985.63
2022-10-02T00:05:25.117Z,972.67
2022-10-02T00:08:00.097Z,852.20
2022-10-02T00:10:35.324Z,893.83
2022-10-02T00:13:08.624Z,816.23
2022-10-02T00:15:40.891Z,790.73
2022-10-02T00:18:14.769Z,844.60
2022-10-02T00:20:50.434Z,881.50
2022-10-02T00:23:26.522Z,876.57
2022-10-02T00:26:02.008Z,889.60
2022-10-02T00:28:41.402Z,937.67
2022-10-02T00:31:25.239Z,993.37
2022-10-02T00:34:07.137Z,999.90
2022-10-02T00:36:42.991Z,999.90
2022-10-02T00:39:24.878Z,999.80
2022-10-02T00:42:33.544Z,998.00
2022-10-02T00:45:41.392Z,999.90
2022-10-02T00:48:28.515Z,999.90
2022-10-02T00:51:09.278Z,999.90
2022-10-02T00:53:50.601Z,999.90
2022-10-02T00:56:29.248Z,801.37
2022-10-02T00:59:12.916Z,852.77
2022-10-02T01:01:50.243Z,848.27
2022-10-02T01:04:24.474Z,780.63
2022-10-02T01:06:52.598Z,999.90
2022-10-02T01:09:20.839Z,999.90
2022-10-02T01:11:49.514Z,999.90
2022-10-02T01:14:17.737Z,999.90
2022-10-02T01:16:47.655Z,999.90
2022-10-02T01:19:26.517Z,999.90
2022-10-02T01:22:05.260Z,999.90
2022-10-02T01:24:38.051Z,999.90
2022-10-02T01:27:07.647Z,999.90
2022-10-02T01:29:36.185Z,999.90
2022-10-02T01:32:04.358Z,999.90
2022-10-02T01:34:33.816Z,999.90
2022-10-02T01:37:02.972Z,999.90
2022-10-02T01:39:31.848Z,999.90
2022-10-02T01:42:00.274Z,999.90
2022-10-02T01:44:30.521Z,999.90
2022-10-02T01:47:05.716Z,999.90
2022-10-02T01:49:48.092Z,999.90
2022-10-02T01:52:30.855Z,999.90
2022-10-02T01:55:10.189Z,999.90
2022-10-02T01:57:50.195Z,999.90
2022-10-02T02:00:22.258Z,783.80
2022-10-02T02:02:58.541Z,410.97
2022-10-02T02:05:42.126Z,562.07
2022-10-02T02:08:16.784Z,355.97
2022-10-02T02:10:53.821Z,852.63
2022-10-02T02:13:27.283Z,785.13
2022-10-02T02:16:03.519Z,760.60
2022-10-02T02:18:40.542Z,999.90
2022-10-02T02:21:13.723Z,999.90
2022-10-02T02:23:44.342Z,999.90
2022-10-02T02:26:15.103Z,999.90
2022-10-02T02:28:49.838Z,999.90
2022-10-02T02:31:22.490Z,999.90
2022-10-02T02:33:57.156Z,999.90
2022-10-02T02:36:31.605Z,999.90
2022-10-02T02:39:04.221Z,999.90
2022-10-02T02:41:40.184Z,999.90
2022-10-02T02:44:13.216Z,999.90
2022-10-02T02:47:06.574Z,999.90
2022-10-02T02:49:41.858Z,999.90
2022-10-02T02:52:15.253Z,999.90
2022-10-02T02:54:47.622Z,999.90
2022-10-02T02:57:18.301Z,999.90
2022-10-02T02:59:50.349Z,999.90
2022-10-02T03:02:19.915Z,999.90
2022-10-02T03:04:48.132Z,999.90
2022-10-02T03:07:18.059Z,999.90
2022-10-02T03:09:55.099Z,999.90
2022-10-02T03:12:34.517Z,999.90
2022-10-02T03:15:16.655Z,999.90
2022-10-02T03:18:03.621Z,999.90
2022-10-02T03:20:42.487Z,999.90
2022-10-02T03:23:20.896Z,999.90
2022-10-02T03:25:55.068Z,999.90
2022-10-02T03:28:53.624Z,999.90
2022-10-02T03:31:19.315Z,999.90
2022-10-02T03:33:49.682Z,999.90
2022-10-02T03:36:20.681Z,999.90
2022-10-02T03:39:06.243Z,999.90
2022-10-02T03:41:38.301Z,999.90
2022-10-02T03:44:06.454Z,999.90
2022-10-02T03:46:35.080Z,999.90
2022-10-02T03:49:04.771Z,999.90
2022-10-02T03:51:32.919Z,999.90
2022-10-02T03:54:01.112Z,999.90
2022-10-02T03:56:39.822Z,999.90
2022-10-02T03:59:16.918Z,999.90
2022-10-02T04:01:50.227Z,999.90
2022-10-02T04:04:26.377Z,999.90
2022-10-02T04:07:00.871Z,999.90
2022-10-02T04:09:32.590Z,999.90
2022-10-02T04:12:05.076Z,999.90
2022-10-02T04:14:40.715Z,999.90
2022-10-02T04:17:13.903Z,999.90
2022-10-02T04:19:48.273Z,999.90
2022-10-02T04:22:22.970Z,999.90
2022-10-02T04:24:57.272Z,999.90
2022-10-02T04:27:34.456Z,999.90
2022-10-02T04:30:05.496Z,999.90
2022-10-02T04:32:35.191Z,999.90
2022-10-02T04:35:13.384Z,751.87
2022-10-02T04:37:59.007Z,776.73
2022-10-02T04:40:40.212Z,763.67
2022-10-02T04:43:19.553Z,742.70
2022-10-02T04:45:59.952Z,356.50
2022-10-02T04:49:19.875Z,792.87
2022-10-02T04:52:08.879Z,804.97
2022-10-02T04:54:56.978Z,966.23
2022-10-02T04:57:40.797Z,874.57
2022-10-02T05:00:12.456Z,876.73
2022-10-02T05:02:53.895Z,525.47
2022-10-02T05:05:30.137Z,611.20
2022-10-02T05:08:20.459Z,382.27
2022-10-02T05:11:07.335Z,333.93
2022-10-02T05:13:53.639Z,347.90
2022-10-02T05:16:34.986Z,189.37
2022-10-02T05:19:26.979Z,203.67
2022-10-02T05:22:14.863Z,211.63
2022-10-02T05:24:55.587Z,210.17
2022-10-02T05:27:37.308Z,249.23
2022-10-02T05:30:11.938Z,180.37
2022-10-02T05:33:17.269Z,293.03
2022-10-02T05:36:21.607Z,225.07
2022-10-02T05:39:07.114Z,211.07
2022-10-02T05:41:45.997Z,290.30
2022-10-02T05:44:18.712Z,287.43
2022-10-02T05:46:52.161Z,280.57
2022-10-02T05:49:26.317Z,327.17
2022-10-02T05:52:00.285Z,332.17
2022-10-02T05:54:42.466Z,313.53
2022-10-02T05:57:20.560Z,265.27
2022-10-02T06:00:01.465Z,280.50
2022-10-02T06:02:39.486Z,319.73
2022-10-02T06:05:16.658Z,378.70
2022-10-02T06:07:48.571Z,407.50
2022-10-02T06:10:20.146Z,440.57
2022-10-02T06:12:55.939Z,513.10
2022-10-02T06:15:27.795Z,516.37
2022-10-02T06:18:00.431Z,546.73
2022-10-02T06:20:35.037Z,570.43
2022-10-02T06:23:08.695Z,520.07
2022-10-02T06:25:40.759Z,615.53
2022-10-02T06:28:16.714Z,472.20
2022-10-02T06:30:50.483Z,397.23
2022-10-02T06:33:23.688Z,405.67
2022-10-02T06:36:18.936Z,316.50
2022-10-02T06:39:11.950Z,236.30
2022-10-02T06:41:54.305Z,198.50
2022-10-02T06:44:35.537Z,250.07
2022-10-02T06:47:19.741Z,215.57
2022-10-02T06:50:03.924Z,279.00
2022-10-02T06:52:45.018Z,342.20
2022-10-02T06:55:33.062Z,349.10
2022-10-02T06:58:13.886Z,339.40
2022-10-02T07:00:50.856Z,374.27
2022-10-02T07:03:51.394Z,502.10
2022-10-02T07:06:36.997Z,399.40
2022-10-02T07:09:45.736Z,437.80
2022-10-02T07:12:31.358Z,370.47
2022-10-02T07:15:19.895Z,445.40
2022-10-02T07:18:04.964Z,487.70
2022-10-02T07:20:47.393Z,546.57
2022-10-02T07:23:30.689Z,539.87
2022-10-02T07:26:15.449Z,564.13
2022-10-02T07:28:51.714Z,568.37
2022-10-02T07:31:33.100Z,675.90
2022-10-02T07:34:18.676Z,652.83
2022-10-02T07:36:57.202Z,622.70
2022-10-02T07:39:38.128Z,667.83
2022-10-02T07:42:23.935Z,624.87
2022-10-02T07:45:22.577Z,619.60
2022-10-02T07:48:07.160Z,565.43
2022-10-02T07:50:50.295Z,643.77
2022-10-02T07:53:26.365Z,678.77
2022-10-02T07:55:56.282Z,707.10
2022-10-02T07:58:33.057Z,785.60
2022-10-02T08:01:03.330Z,771.03
2022-10-02T08:03:37.148Z,886.73
2022-10-02T08:06:07.389Z,873.00
2022-10-02T08:08:40.280Z,885.67
2022-10-02T08:11:13.347Z,930.20
2022-10-02T08:13:47.619Z,933.57
2022-10-02T08:16:22.598Z,909.67
2022-10-02T08:18:56.726Z,936.43
2022-10-02T08:21:27.800Z,911.20
2022-10-02T08:24:00.510Z,949.20
2022-10-02T08:26:35.784Z,969.13
2022-10-02T08:29:09.146Z,960.50
2022-10-02T08:31:37.309Z,981.20
2022-10-02T08:34:14.822Z,999.90
2022-10-02T08:37:03.021Z,967.37
2022-10-02T08:39:53.814Z,961.57
2022-10-02T08:42:55.986Z,925.73
2022-10-02T08:46:02.506Z,840.13
2022-10-02T08:49:07.156Z,819.07
2022-10-02T08:51:52.755Z,853.93
2022-10-02T08:54:50.491Z,964.77
2022-10-02T08:57:48.058Z,888.83
2022-10-02T09:00:23.726Z,897.03
2022-10-02T09:03:28.453Z,999.90
2022-10-02T09:06:37.434Z,979.90
2022-10-02T09:09:53.686Z,967.43
2022-10-02T09:12:53.808Z,956.93
2022-10-02T09:15:34.849Z,999.90
2022-10-02T09:18:16.753Z,999.90
2022-10-02T09:21:12.724Z,999.90
2022-10-02T09:24:23.380Z,999.90
2022-10-02T09:27:12.513Z,999.90
2022-10-02T09:30:13.142Z,999.90
2022-10-02T09:33:22.629Z,999.90
2022-10-02T09:36:25.002Z,999.90
2022-10-02T09:39:21.725Z,999.90
2022-10-02T09:42:31.549Z,999.90
2022-10-02T09:45:43.109Z,999.90
2022-10-02T09:48:48.748Z,999.90
2022-10-02T09:51:58.787Z,999.90
2022-10-02T09:54:55.760Z,999.90
2022-10-02T09:58:10.735Z,999.90
2022-10-02T10:01:09.652Z,999.90
2022-10-02T10:04:02.092Z,999.90
2022-10-02T10:07:07.165Z,999.90
2022-10-02T10:10:00.764Z,999.90
2022-10-02T10:13:21.392Z,999.90
2022-10-02T10:16:19.902Z,999.90
2022-10-02T10:19:45.396Z,999.90
2022-10-02T10:22:57.595Z,999.90
2022-10-02T10:25:50.196Z,999.90
2022-10-02T10:28:52.850Z,999.90
2022-10-02T10:32:03.720Z,999.90
2022-10-02T10:34:46.185Z,999.90
2022-10-02T10:37:47.911Z,999.90
2022-10-02T10:40:37.106Z,999.90
2022-10-02T10:43:36.495Z,999.90
2022-10-02T10:46:24.267Z,999.90
2022-10-02T10:49:28.082Z,999.90
2022-10-02T10:52:14.080Z,999.90
2022-10-02T10:55:03.693Z,999.90
2022-10-02T10:57:51.347Z,999.90
2022-10-02T11:00:22.848Z,999.90
2022-10-02T11:03:23.944Z,999.90
2022-10-02T11:06:36.947Z,999.90
2022-10-02T11:09:53.949Z,999.90
2022-10-02T11:12:47.080Z,567.80
2022-10-02T11:15:48.054Z,127.17
2022-10-02T11:18:34.536Z,999.90
2022-10-02T11:21:28.762Z,846.17
2022-10-02T11:24:14.719Z,999.90
2022-10-02T11:27:13.568Z,999.90
2022-10-02T11:30:07.818Z,999.90
2022-10-02T11:33:10.732Z,999.90
2022-10-02T11:35:52.080Z,999.90
2022-10-02T11:38:50.048Z,999.90
2022-10-02T11:41:53.464Z,999.90
2022-10-02T11:44:37.298Z,999.90
2022-10-02T11:47:33.471Z,999.90
2022-10-02T11:50:40.092Z,999.90
2022-10-02T11:53:22.190Z,999.90
2022-10-02T11:56:16.208Z,999.90
2022-10-02T11:58:56.560Z,999.90
2022-10-02T12:01:35.876Z,999.90
2022-10-02T12:04:33.335Z,745.37
2022-10-02T12:07:18.842Z,304.70
2022-10-02T12:09:58.838Z,610.57
2022-10-02T12:12:41.157Z,326.43
2022-10-02T12:15:23.924Z,804.90
2022-10-02T12:18:03.610Z,798.87
2022-10-02T12:21:10.177Z,832.97
2022-10-02T12:24:07.265Z,999.90
2022-10-02T12:27:04.558Z,999.90
2022-10-02T12:29:45.111Z,999.90
2022-10-02T12:32:28.054Z,691.70
2022-10-02T12:35:17.847Z,999.90
2022-10-02T12:37:57.728Z,743.90
2022-10-02T12:40:32.859Z,588.07
2022-10-02T12:43:21.082Z,999.90
2022-10-02T12:46:22.019Z,999.90
2022-10-02T12:49:03.272Z,999.90
2022-10-02T12:51:38.325Z,999.90
2022-10-02T12:54:43.902Z,999.90
2022-10-02T12:57:53.448Z,999.90
2022-10-02T13:00:24.625Z,999.90
2022-10-02T13:03:29.409Z,999.90
2022-10-02T13:06:27.902Z,999.90
2022-10-02T13:09:11.806Z,999.90
2022-10-02T13:11:56.390Z,999.90
2022-10-02T13:15:03.353Z,999.90
2022-10-02T13:17:39.401Z,999.90
2022-10-02T13:20:20.599Z,999.90
2022-10-02T13:22:58.202Z,999.90
2022-10-02T13:25:38.945Z,999.90
2022-10-02T13:28:26.236Z,999.90
2022-10-02T13:31:04.754Z,999.90
2022-10-02T13:33:54.068Z,999.90
2022-10-02T13:36:33.720Z,999.90
2022-10-02T13:39:33.937Z,999.90
2022-10-02T13:42:18.456Z,999.90
2022-10-02T13:44:57.310Z,999.90
2022-10-02T13:47:44.202Z,999.90
2022-10-02T13:50:23.470Z,999.90
2022-10-02T13:53:04.152Z,999.90
2022-10-02T13:55:36.690Z,999.90
2022-10-02T13:58:30.150Z,999.90
2022-10-02T14:01:06.860Z,999.90
2022-10-02T14:06:53.847Z,999.90
2022-10-02T14:09:40.609Z,999.90
2022-10-02T14:12:28.715Z,999.90
2022-10-02T14:15:16.351Z,999.90
2022-10-02T14:18:07.129Z,999.90
2022-10-02T14:20:41.007Z,999.90
2022-10-02T14:23:30.711Z,999.90
2022-10-02T14:26:13.165Z,999.90
2022-10-02T14:29:08.569Z,999.90
2022-10-02T14:32:18.522Z,999.90
2022-10-02T14:35:12.219Z,999.90
2022-10-02T14:38:32.469Z,999.90
2022-10-02T14:41:14.782Z,999.90
2022-10-02T14:44:00.737Z,999.90
2022-10-02T14:46:38.110Z,999.90
2022-10-02T14:49:22.541Z,999.90
2022-10-02T14:52:08.818Z,999.90
2022-10-02T14:54:54.325Z,999.90
2022-10-02T14:57:45.900Z,999.90
2022-10-02T15:00:19.402Z,999.90
2022-10-02T15:03:16.537Z,999.90
2022-10-02T15:06:26.174Z,783.20
2022-10-02T15:09:01.142Z,330.40
2022-10-02T15:11:52.089Z,987.80
2022-10-02T15:14:25.268Z,818.77
2022-10-02T15:17:18.284Z,856.50
2022-10-02T15:19:50.266Z,778.37
2022-10-02T15:22:22.806Z,986.37
2022-10-02T15:24:58.260Z,999.90
2022-10-02T15:27:32.638Z,999.90
2022-10-02T15:30:13.104Z,999.90
2022-10-02T15:32:56.191Z,999.90
2022-10-02T15:35:49.632Z,999.90
2022-10-02T15:38:37.561Z,999.90
2022-10-02T15:41:32.046Z,999.90
2022-10-02T15:44:11.081Z,987.00
2022-10-02T15:46:55.107Z,990.40
2022-10-02T15:49:36.854Z,906.37
2022-10-02T15:52:15.009Z,958.90
2022-10-02T15:54:55.176Z,947.10
2022-10-02T15:57:53.852Z,888.37
2022-10-02T16:00:23.909Z,999.90
2022-10-02T16:03:02.714Z,999.90
2022-10-02T16:05:44.254Z,992.00
2022-10-02T16:08:55.601Z,957.67
2022-10-02T16:12:09.255Z,985.43
2022-10-02T16:14:48.645Z,956.90
2022-10-02T16:17:32.778Z,963.20
2022-10-02T16:20:13.924Z,999.90
2022-10-02T16:22:59.341Z,985.20
2022-10-02T16:25:48.700Z,877.03
2022-10-02T16:28:34.132Z,744.93
2022-10-02T16:31:20.069Z,749.30
2022-10-02T16:34:00.935Z,921.40
2022-10-02T16:36:41.355Z,826.80
2022-10-02T16:39:20.516Z,865.07
2022-10-02T16:42:01.673Z,954.63
2022-10-02T16:45:17.092Z,751.37
2022-10-02T16:47:56.045Z,908.20
2022-10-02T16:50:28.739Z,936.47
2022-10-02T16:53:03.698Z,978.77
2022-10-02T16:55:36.487Z,999.90
2022-10-02T16:58:24.333Z,999.90
2022-10-02T17:00:56.875Z,999.90
2022-10-02T17:03:33.610Z,999.90
2022-10-02T17:06:10.987Z,999.90
2022-10-02T17:08:45.227Z,999.90
2022-10-02T17:11:21.563Z,999.90
2022-10-02T17:14:06.286Z,999.90
2022-10-02T17:16:40.627Z,999.90
2022-10-02T17:19:23.100Z,999.90
2022-10-02T17:21:56.479Z,999.90
2022-10-02T17:24:43.615Z,999.90
2022-10-02T17:27:19.086Z,999.90
2022-10-02T17:29:55.567Z,999.90
2022-10-02T17:32:48.266Z,994.20
2022-10-02T17:35:30.190Z,946.30
2022-10-02T17:38:36.072Z,975.13
2022-10-02T17:41:21.494Z,830.97
2022-10-02T17:43:59.420Z,964.10
2022-10-02T17:46:56.647Z,974.77
2022-10-02T17:49:37.630Z,916.90
2022-10-02T17:52:40.700Z,960.47
2022-10-02T17:55:44.358Z,866.93
2022-10-02T17:58:23.314Z,891.17
2022-10-02T18:01:05.843Z,904.57
2022-10-02T18:03:53.037Z,965.87
2022-10-02T18:06:31.975Z,970.83
2022-10-02T18:09:27.016Z,976.57
2022-10-02T18:12:23.151Z,891.37
2022-10-02T18:15:16.470Z,895.57
2022-10-02T18:18:08.373Z,858.23
2022-10-02T18:20:44.444Z,865.13
2022-10-02T18:23:25.539Z,964.90
2022-10-02T18:26:20.312Z,926.63
2022-10-02T18:29:06.960Z,903.00
2022-10-02T18:31:58.567Z,941.83
2022-10-02T18:34:53.469Z,941.70
2022-10-02T18:37:39.301Z,863.50
2022-10-02T18:40:23.307Z,853.83
2022-10-02T18:43:21.993Z,913.73
2022-10-02T18:46:00.265Z,826.50
2022-10-02T18:48:57.526Z,900.23
2022-10-02T18:51:37.882Z,867.57
2022-10-02T18:54:21.188Z,932.23
2022-10-02T18:57:05.422Z,921.00
2022-10-02T18:59:47.784Z,936.57
2022-10-02T19:02:33.722Z,950.07
2022-10-02T19:05:23.994Z,922.33
2022-10-02T19:07:57.952Z,930.47
2022-10-02T19:10:29.539Z,967.70
2022-10-02T19:13:02.115Z,959.53
2022-10-02T19:15:34.742Z,979.60
2022-10-02T19:18:04.700Z,971.03
2022-10-02T19:20:48.207Z,999.17
2022-10-02T19:23:26.425Z,963.77
2022-10-02T19:25:57.103Z,966.40
2022-10-02T19:28:29.485Z,972.70
2022-10-02T19:31:03.786Z,999.90
2022-10-02T19:33:45.014Z,988.23
2022-10-02T19:36:19.533Z,948.87
2022-10-02T19:38:54.412Z,962.47
2022-10-02T19:41:23.722Z,988.77
2022-10-02T19:43:57.000Z,999.90
2022-10-02T19:46:37.150Z,981.97
2022-10-02T19:49:07.523Z,921.03
2022-10-02T19:51:46.207Z,968.87
2022-10-02T19:54:20.261Z,928.10
2022-10-02T19:56:48.589Z,933.80
2022-10-02T19:59:20.051Z,947.33
2022-10-02T20:01:53.896Z,905.37
2022-10-02T20:04:24.273Z,927.80
2022-10-02T20:06:57.013Z,931.80
2022-10-02T20:09:31.040Z,798.97
2022-10-02T20:12:05.832Z,814.00
2022-10-02T20:14:40.841Z,741.33
2022-10-02T20:17:12.675Z,780.73
2022-10-02T20:19:45.630Z,759.67
2022-10-02T20:22:24.868Z,710.30
2022-10-02T20:24:57.787Z,562.13
2022-10-02T20:27:37.380Z,639.97
2022-10-02T20:30:12.232Z,598.13
2022-10-02T20:32:48.147Z,634.33
2022-10-02T20:35:22.830Z,584.57
2022-10-02T20:37:55.182Z,531.63
2022-10-02T20:40:28.515Z,540.03
2022-10-02T20:43:01.859Z,543.23
2022-10-02T20:45:38.136Z,540.53
2022-10-02T20:49:06.300Z,514.87
2022-10-02T20:51:54.838Z,252.27
2022-10-02T20:54:49.256Z,278.40
2022-10-02T20:57:59.797Z,285.37
2022-10-02T21:00:32.474Z,294.40
2022-10-02T21:03:30.853Z,442.57
2022-10-02T21:06:32.596Z,277.13
2022-10-02T21:09:36.155Z,251.13
2022-10-02T21:12:46.079Z,194.00
2022-10-02T21:15:34.830Z,210.53
2022-10-02T21:18:24.404Z,284.03
2022-10-02T21:21:19.369Z,214.03
2022-10-02T21:24:16.036Z,226.53
2022-10-02T21:27:08.456Z,234.53
2022-10-02T21:29:53.962Z,208.60
2022-10-02T21:32:42.866Z,228.33
2022-10-02T21:35:31.773Z,248.70
2022-10-02T21:38:28.060Z,256.20
2022-10-02T21:41:35.150Z,133.20
2022-10-02T21:44:34.378Z,134.53
2022-10-02T21:47:40.938Z,166.07
2022-10-02T21:50:46.680Z,165.53
2022-10-02T21:53:57.330Z,107.10
2022-10-02T21:57:02.549Z,126.03
2022-10-02T22:00:08.573Z,88.60
2022-10-02T22:03:13.545Z,106.73
2022-10-02T22:06:05.229Z,139.23
2022-10-02T22:08:44.709Z,167.87
2022-10-02T22:11:22.681Z,213.00
2022-10-02T22:13:55.885Z,205.60
2022-10-02T22:16:35.337Z,222.10
2022-10-02T22:19:14.728Z,281.83
2022-10-02T22:22:02.471Z,234.30
2022-10-02T22:24:49.920Z,212.63
2022-10-02T22:27:32.150Z,187.33
2022-10-02T22:30:00.705Z,197.17
2022-10-02T22:33:13.247Z,323.60
2022-10-02T22:36:24.111Z,127.00
2022-10-02T22:39:00.601Z,146.80
2022-10-02T22:41:36.109Z,225.67
2022-10-02T22:44:10.381Z,220.30
2022-10-02T22:46:47.580Z,261.57
2022-10-02T22:49:27.144Z,249.83
2022-10-02T22:52:01.242Z,284.77
2022-10-02T22:54:39.819Z,280.27
2022-10-02T22:57:20.827Z,261.40
2022-10-02T22:59:56.295Z,263.73
2022-10-02T23:02:30.508Z,314.37
2022-10-02T23:05:07.492Z,344.63
2022-10-02T23:07:42.543Z,316.63
2022-10-02T23:10:21.781Z,322.30
2022-10-02T23:13:01.211Z,305.10
2022-10-02T23:15:39.752Z,347.30
2022-10-02T23:18:19.233Z,343.70
2022-10-02T23:21:02.373Z,361.80
2022-10-02T23:23:36.677Z,285.57
2022-10-02T23:26:11.170Z,283.20
2022-10-02T23:28:46.473Z,307.57
2022-10-02T23:31:22.942Z,249.03
2022-10-02T23:33:58.111Z,266.90
2022-10-02T23:36:33.749Z,238.57
2022-10-02T23:39:07.579Z,266.33
2022-10-02T23:41:47.487Z,267.63
2022-10-02T23:44:24.810Z,203.73
2022-10-02T23:47:18.634Z,221.83
2022-10-02T23:49:49.992Z,143.33
2022-10-02T23:52:38.823Z,231.93
2022-10-02T23:55:20.631Z,185.43
2022-10-02T23:58:18.829Z,183.80
